Terminal Aerodrome Forecast
Issued by NWS

Home | Current Version | Previous Version | Text Only | Print | Product List | Glossary On
Versions: 1 2 3 4 5 6 7 8 9 10 11 12 13 14 15 16 17
000
FTUS46 KMTR 062238 AAA
TAFSNS
TAF AMD
KSNS 062238Z 0623/0718 31005KT 5SM -RA BKN016 BKN060 OVC080
     FM070400 29004KT P6SM BKN015
     FM070800 VRB04KT P6SM OVC009
     FM071400 15014G21KT P6SM BKN015
     FM071700 16012KT P6SM SCT020=

USA.gov is the U.S. government's official web portal to all federal, state and local government web resources and services.